createdAt,value
2022-07-29T00:00:25.312Z,3.70
2022-07-29T00:03:28.258Z,3.58
2022-07-29T00:06:30.840Z,3.47
2022-07-29T00:09:33.845Z,3.85
2022-07-29T00:12:54.004Z,3.80
2022-07-29T00:15:56.841Z,3.45
2022-07-29T00:19:07.785Z,3.75
2022-07-29T00:22:10.785Z,3.50
2022-07-29T00:25:14.000Z,3.60
2022-07-29T00:28:16.795Z,3.58
2022-07-29T00:31:19.464Z,3.60
2022-07-29T00:34:41.296Z,3.30
2022-07-29T00:37:44.009Z,3.72
2022-07-29T00:40:48.365Z,3.80
2022-07-29T00:43:50.832Z,3.60
2022-07-29T00:46:53.745Z,3.87
2022-07-29T00:49:56.388Z,3.53
2022-07-29T00:53:00.181Z,3.40
2022-07-29T00:56:02.745Z,3.95
2022-07-29T00:59:05.573Z,3.70
2022-07-29T01:02:08.151Z,3.67
2022-07-29T01:05:12.374Z,3.65
2022-07-29T01:08:16.805Z,4.00
2022-07-29T01:11:20.231Z,3.58
2022-07-29T01:14:23.229Z,3.90
2022-07-29T01:17:52.601Z,3.92
2022-07-29T01:21:44.849Z,3.53
2022-07-29T01:25:24.995Z,3.90
2022-07-29T01:28:49.309Z,3.92
2022-07-29T01:32:28.168Z,3.60
2022-07-29T01:35:41.096Z,3.80
2022-07-29T01:38:47.589Z,3.80
2022-07-29T01:42:24.098Z,4.05
2022-07-29T01:45:44.192Z,4.10
2022-07-29T01:49:12.317Z,3.85
2022-07-29T01:52:22.881Z,3.58
2022-07-29T01:55:29.887Z,3.70
2022-07-29T01:58:34.174Z,3.97
2022-07-29T02:01:39.278Z,3.92
2022-07-29T02:04:44.117Z,3.65
2022-07-29T02:07:49.088Z,3.83
2022-07-29T02:10:53.701Z,3.40
2022-07-29T02:13:58.972Z,4.00
2022-07-29T02:17:03.802Z,3.67
2022-07-29T02:20:07.358Z,3.60
2022-07-29T02:23:12.725Z,3.78
2022-07-29T02:26:16.072Z,3.60
2022-07-29T02:29:25.878Z,3.80
2022-07-29T02:32:29.405Z,4.00
2022-07-29T02:35:34.675Z,4.20
2022-07-29T02:38:58.528Z,3.87
2022-07-29T02:42:14.568Z,3.90
2022-07-29T02:45:17.150Z,3.67
2022-07-29T02:48:28.578Z,3.90
2022-07-29T02:52:05.356Z,4.12
2022-07-29T02:55:14.300Z,4.00
2022-07-29T02:58:22.078Z,4.25
2022-07-29T03:04:31.799Z,3.80
2022-07-29T03:07:36.239Z,3.97
2022-07-29T03:10:41.323Z,3.80
2022-07-29T03:13:45.087Z,4.05
2022-07-29T03:16:48.663Z,4.10
2022-07-29T03:19:51.823Z,3.83
2022-07-29T03:22:54.315Z,4.15
2022-07-29T03:25:57.720Z,3.80
2022-07-29T03:29:00.920Z,4.20
2022-07-29T03:32:07.341Z,4.25
2022-07-29T03:35:11.397Z,3.90
2022-07-29T03:38:14.369Z,4.25
2022-07-29T03:41:18.729Z,4.32
2022-07-29T03:44:27.286Z,4.30
2022-07-29T03:47:49.933Z,4.10
2022-07-29T03:50:54.735Z,4.28
2022-07-29T03:53:57.681Z,4.22
2022-07-29T03:57:02.986Z,4.85
2022-07-29T04:00:06.876Z,5.45
2022-07-29T04:03:11.690Z,5.57
2022-07-29T04:06:14.390Z,4.20
2022-07-29T04:09:17.114Z,4.47
2022-07-29T04:12:19.753Z,4.28
2022-07-29T04:15:22.741Z,4.50
2022-07-29T04:18:25.710Z,4.50
2022-07-29T04:21:28.571Z,4.15
2022-07-29T04:24:31.084Z,4.53
2022-07-29T04:27:33.872Z,4.65
2022-07-29T04:30:38.085Z,4.57
2022-07-29T04:33:40.968Z,4.32
2022-07-29T04:36:43.475Z,4.40
2022-07-29T04:39:46.280Z,4.12
2022-07-29T04:42:49.546Z,4.87
2022-07-29T04:45:52.484Z,4.50
2022-07-29T04:48:55.230Z,3.95
2022-07-29T04:51:59.014Z,5.07
2022-07-29T04:55:01.942Z,5.07
2022-07-29T04:58:04.806Z,4.85
2022-07-29T05:01:07.402Z,4.90
2022-07-29T05:04:10.235Z,4.57
2022-07-29T05:07:12.735Z,4.60
2022-07-29T05:10:15.553Z,4.30
2022-07-29T05:13:18.230Z,4.75
2022-07-29T05:16:21.190Z,4.60
2022-07-29T05:19:24.328Z,4.45
2022-07-29T05:22:27.154Z,4.93
2022-07-29T05:25:40.738Z,4.37
2022-07-29T05:28:46.770Z,4.33
2022-07-29T05:31:49.288Z,4.90
2022-07-29T05:34:52.086Z,4.25
2022-07-29T05:37:54.554Z,4.80
2022-07-29T05:40:59.645Z,4.30
2022-07-29T05:44:02.175Z,4.57
2022-07-29T05:47:04.992Z,4.80
2022-07-29T05:50:08.149Z,4.50
2022-07-29T05:53:20.137Z,4.55
2022-07-29T05:56:22.948Z,4.65
2022-07-29T05:59:30.172Z,4.47
2022-07-29T06:02:33.161Z,4.28
2022-07-29T06:05:36.070Z,4.62
2022-07-29T06:08:38.940Z,4.68
2022-07-29T06:11:42.465Z,4.15
2022-07-29T06:14:45.013Z,4.87
2022-07-29T06:17:59.009Z,4.85
2022-07-29T06:21:02.801Z,4.55
2022-07-29T06:24:06.125Z,4.65
2022-07-29T06:27:08.789Z,4.28
2022-07-29T06:30:12.187Z,4.57
2022-07-29T06:33:19.722Z,4.65
2022-07-29T06:36:23.537Z,4.40
2022-07-29T06:39:28.921Z,4.25
2022-07-29T06:42:31.654Z,4.60
2022-07-29T06:45:37.676Z,4.57
2022-07-29T06:48:43.118Z,4.62
2022-07-29T06:51:45.778Z,4.80
2022-07-29T06:54:49.309Z,5.20
2022-07-29T06:57:52.321Z,4.37
2022-07-29T07:00:56.786Z,4.37
2022-07-29T07:04:01.779Z,4.15
2022-07-29T07:07:04.689Z,4.50
2022-07-29T07:10:07.679Z,4.70
2022-07-29T07:13:11.455Z,4.68
2022-07-29T07:16:14.213Z,4.40
2022-07-29T07:19:17.145Z,4.90
2022-07-29T07:22:19.753Z,4.40
2022-07-29T07:25:23.943Z,4.87
2022-07-29T07:28:26.610Z,4.40
2022-07-29T07:31:29.690Z,4.97
2022-07-29T07:34:32.367Z,4.57
2022-07-29T07:37:35.611Z,4.20
2022-07-29T07:40:38.434Z,4.55
2022-07-29T07:43:41.611Z,4.35
2022-07-29T07:46:45.898Z,4.70
2022-07-29T07:49:48.673Z,4.37
2022-07-29T07:52:53.596Z,4.55
2022-07-29T07:56:12.823Z,4.78
2022-07-29T07:59:15.633Z,4.43
2022-07-29T08:02:18.530Z,3.95
2022-07-29T08:05:21.495Z,4.72
2022-07-29T08:08:24.060Z,4.25
2022-07-29T08:11:26.971Z,4.50
2022-07-29T08:14:32.081Z,4.65
2022-07-29T08:17:35.515Z,4.60
2022-07-29T08:20:39.866Z,4.30
2022-07-29T08:23:51.668Z,4.82
2022-07-29T08:26:55.431Z,4.12
2022-07-29T08:29:58.443Z,4.30
2022-07-29T08:33:01.336Z,3.95
2022-07-29T08:36:04.800Z,4.55
2022-07-29T08:39:07.341Z,4.72
2022-07-29T08:42:11.588Z,4.70
2022-07-29T08:45:14.164Z,4.47
2022-07-29T08:48:23.083Z,4.40
2022-07-29T08:51:28.772Z,4.30
2022-07-29T08:54:32.073Z,4.47
2022-07-29T08:57:37.205Z,4.30
2022-07-29T09:00:47.645Z,4.32
2022-07-29T09:03:56.436Z,4.43
2022-07-29T09:10:05.778Z,4.30
2022-07-29T09:13:09.065Z,4.40
2022-07-29T09:16:11.644Z,4.30
2022-07-29T09:19:45.338Z,4.65
2022-07-29T09:22:51.855Z,4.57
2022-07-29T09:25:54.738Z,4.45
2022-07-29T09:28:58.797Z,4.00
2022-07-29T09:32:01.712Z,4.65
2022-07-29T09:35:17.190Z,4.05
2022-07-29T09:38:20.259Z,4.40
2022-07-29T09:41:22.882Z,4.35
2022-07-29T09:44:26.867Z,4.03
2022-07-29T09:47:50.244Z,4.22
2022-07-29T09:50:53.535Z,4.00
2022-07-29T09:53:56.082Z,4.12
2022-07-29T09:56:58.815Z,4.07
2022-07-29T10:00:10.427Z,4.25
2022-07-29T10:03:15.859Z,3.90
2022-07-29T10:06:18.856Z,4.15
2022-07-29T10:09:22.226Z,4.00
2022-07-29T10:12:28.301Z,4.30
2022-07-29T10:15:33.427Z,3.37
2022-07-29T10:18:38.685Z,4.07
2022-07-29T10:21:44.218Z,3.55
2022-07-29T10:24:47.243Z,3.95
2022-07-29T10:27:52.075Z,3.37
2022-07-29T10:31:05.567Z,3.83
2022-07-29T10:34:49.345Z,3.67
2022-07-29T10:38:07.559Z,3.58
2022-07-29T10:41:46.740Z,4.05
2022-07-29T10:44:50.657Z,3.47
2022-07-29T10:48:05.682Z,3.78
2022-07-29T10:51:10.944Z,3.58
2022-07-29T10:54:16.415Z,3.55
2022-07-29T10:57:52.998Z,3.42
2022-07-29T11:00:54.977Z,3.30
2022-07-29T11:03:59.210Z,3.33
2022-07-29T11:07:03.867Z,3.65
2022-07-29T11:10:13.851Z,3.30
2022-07-29T11:13:44.718Z,3.72
2022-07-29T11:17:06.456Z,3.72
2022-07-29T11:20:37.776Z,3.85
2022-07-29T11:23:43.359Z,3.30
2022-07-29T11:27:14.708Z,3.30
2022-07-29T11:30:21.899Z,3.30
2022-07-29T11:33:54.181Z,3.25
2022-07-29T11:37:07.508Z,3.20
2022-07-29T11:40:12.632Z,3.20
2022-07-29T11:44:08.899Z,3.37
2022-07-29T11:47:12.080Z,2.90
2022-07-29T11:50:37.485Z,2.93
2022-07-29T11:53:52.466Z,3.08
2022-07-29T11:56:56.045Z,2.92
2022-07-29T12:00:03.056Z,2.90
2022-07-29T12:03:12.524Z,2.85
2022-07-29T12:09:40.438Z,3.00
2022-07-29T12:12:53.768Z,3.00
2022-07-29T12:16:00.041Z,3.15
2022-07-29T12:19:04.257Z,3.00
2022-07-29T12:22:07.182Z,2.83
2022-07-29T12:25:32.554Z,2.75
2022-07-29T12:28:39.885Z,3.05
2022-07-29T12:31:45.321Z,3.40
2022-07-29T12:34:48.938Z,3.20
2022-07-29T12:37:53.131Z,3.22
2022-07-29T12:40:58.886Z,2.97
2022-07-29T12:44:01.811Z,3.10
2022-07-29T12:47:05.205Z,3.80
2022-07-29T12:50:21.114Z,3.25
2022-07-29T12:53:27.573Z,3.00
2022-07-29T12:56:45.763Z,3.15
2022-07-29T13:00:22.598Z,3.60
2022-07-29T13:03:25.160Z,3.20
2022-07-29T13:06:38.783Z,3.47
2022-07-29T13:09:48.536Z,3.08
2022-07-29T13:13:16.245Z,3.05
2022-07-29T13:16:19.965Z,2.85
2022-07-29T13:19:35.242Z,3.30
2022-07-29T13:22:37.840Z,4.00
2022-07-29T13:25:41.775Z,3.03
2022-07-29T13:28:44.447Z,3.22
2022-07-29T13:31:47.303Z,3.28
2022-07-29T13:34:50.130Z,3.05
2022-07-29T13:37:53.572Z,3.30
2022-07-29T13:40:56.372Z,3.20
2022-07-29T13:43:59.207Z,3.00
2022-07-29T13:47:01.975Z,3.40
2022-07-29T13:50:06.835Z,3.10
2022-07-29T13:53:09.654Z,2.90
2022-07-29T13:56:20.504Z,3.45
2022-07-29T13:59:23.004Z,3.17
2022-07-29T14:02:26.355Z,3.22
2022-07-29T14:05:29.386Z,3.10
2022-07-29T14:08:31.953Z,3.37
2022-07-29T14:11:34.776Z,2.90
2022-07-29T14:14:37.767Z,2.95
2022-07-29T14:17:40.698Z,3.22
2022-07-29T14:20:43.374Z,3.20
2022-07-29T14:23:46.216Z,3.20
2022-07-29T14:26:49.080Z,2.95
2022-07-29T14:29:52.151Z,2.95
2022-07-29T14:32:54.683Z,2.97
2022-07-29T14:36:01.006Z,3.15
2022-07-29T14:39:04.077Z,3.37
2022-07-29T14:42:08.890Z,2.80
2022-07-29T14:45:11.850Z,3.20
2022-07-29T14:48:14.782Z,3.35
2022-07-29T14:51:17.276Z,3.25
2022-07-29T14:54:20.203Z,3.22
2022-07-29T14:57:22.762Z,3.70
2022-07-29T15:00:27.723Z,3.22
2022-07-29T15:03:30.480Z,3.60
2022-07-29T15:06:37.357Z,3.42
2022-07-29T15:09:40.386Z,3.30
2022-07-29T15:12:53.040Z,3.28
2022-07-29T15:16:00.092Z,3.33
2022-07-29T15:19:03.751Z,2.97
2022-07-29T15:22:06.565Z,3.10
2022-07-29T15:25:10.003Z,3.12
2022-07-29T15:28:12.665Z,2.97
2022-07-29T15:31:15.543Z,3.22
2022-07-29T15:34:18.298Z,3.60
2022-07-29T15:37:21.304Z,3.37
2022-07-29T15:40:25.578Z,3.50
2022-07-29T15:43:28.358Z,3.15
2022-07-29T15:46:49.377Z,2.87
2022-07-29T15:49:52.441Z,3.58
2022-07-29T15:52:54.937Z,3.53
2022-07-29T15:55:57.720Z,3.87
2022-07-29T15:59:00.934Z,4.00
2022-07-29T16:02:04.202Z,3.80
2022-07-29T16:05:09.483Z,3.62
2022-07-29T16:08:12.210Z,3.62
2022-07-29T16:11:14.964Z,3.60
2022-07-29T16:14:18.374Z,3.62
2022-07-29T16:17:21.216Z,3.40
2022-07-29T16:20:23.990Z,3.33
2022-07-29T16:23:26.881Z,3.53
2022-07-29T16:26:29.373Z,3.40
2022-07-29T16:29:32.547Z,3.33
2022-07-29T16:32:35.460Z,3.10
2022-07-29T16:35:40.391Z,3.00
2022-07-29T16:38:47.006Z,3.40
2022-07-29T16:41:50.372Z,3.08
2022-07-29T16:44:52.892Z,3.20
2022-07-29T16:48:00.194Z,3.70
2022-07-29T16:51:03.703Z,3.42
2022-07-29T16:54:06.692Z,3.00
2022-07-29T16:57:09.198Z,3.65
2022-07-29T17:00:13.522Z,3.33
2022-07-29T17:03:16.000Z,3.45
2022-07-29T17:06:18.760Z,3.60
2022-07-29T17:09:21.353Z,3.65
2022-07-29T17:12:24.697Z,3.20
2022-07-29T17:15:27.278Z,3.70
2022-07-29T17:18:30.057Z,3.42
2022-07-29T17:21:32.688Z,3.25
2022-07-29T17:24:35.624Z,3.60
2022-07-29T17:27:38.124Z,3.83
2022-07-29T17:30:40.907Z,3.80
2022-07-29T17:33:43.576Z,3.72
2022-07-29T17:36:46.478Z,3.72
2022-07-29T17:39:49.072Z,3.67
2022-07-29T17:42:51.981Z,4.00
2022-07-29T17:45:59.293Z,3.50
2022-07-29T17:49:02.621Z,3.80
2022-07-29T17:52:05.474Z,3.60
2022-07-29T17:55:10.318Z,3.55
2022-07-29T17:58:12.918Z,3.62
2022-07-29T18:01:16.321Z,3.62
2022-07-29T18:04:23.253Z,3.47
2022-07-29T18:07:25.796Z,3.87
2022-07-29T18:10:28.612Z,3.90
2022-07-29T18:13:31.280Z,3.75
2022-07-29T18:16:34.184Z,3.80
2022-07-29T18:19:36.773Z,3.83
2022-07-29T18:22:39.559Z,3.85
2022-07-29T18:25:42.143Z,4.00
2022-07-29T18:28:45.015Z,4.10
2022-07-29T18:31:47.687Z,3.90
2022-07-29T18:34:50.566Z,3.78
2022-07-29T18:38:02.017Z,4.30
2022-07-29T18:41:05.582Z,3.87
2022-07-29T18:44:09.649Z,4.25
2022-07-29T18:47:12.894Z,4.40
2022-07-29T18:50:16.462Z,3.90
2022-07-29T18:53:19.410Z,3.67
2022-07-29T18:56:22.144Z,3.65
2022-07-29T18:59:25.021Z,3.47
2022-07-29T19:02:28.095Z,3.65
2022-07-29T19:05:31.156Z,3.70
2022-07-29T19:08:33.745Z,3.60
2022-07-29T19:11:38.492Z,3.40
2022-07-29T19:14:41.099Z,3.47
2022-07-29T19:17:43.989Z,3.40
2022-07-29T19:20:46.533Z,3.53
2022-07-29T19:24:01.458Z,3.55
2022-07-29T19:27:10.041Z,3.75
2022-07-29T19:30:13.415Z,3.92
2022-07-29T19:33:17.642Z,3.72
2022-07-29T19:36:20.693Z,3.83
2022-07-29T19:39:34.974Z,3.72
2022-07-29T19:42:38.898Z,3.65
2022-07-29T19:45:41.509Z,3.87
2022-07-29T19:48:44.978Z,3.47
2022-07-29T19:51:47.517Z,3.60
2022-07-29T19:54:50.343Z,3.67
2022-07-29T19:57:53.424Z,3.90
2022-07-29T20:00:56.319Z,3.80
2022-07-29T20:03:59.135Z,3.80
2022-07-29T20:07:02.197Z,4.10
2022-07-29T20:10:07.562Z,3.87
2022-07-29T20:13:10.488Z,3.85
2022-07-29T20:16:13.374Z,3.87
2022-07-29T20:19:16.873Z,3.80
2022-07-29T20:22:20.997Z,3.70
2022-07-29T20:25:24.150Z,3.47
2022-07-29T20:28:27.055Z,3.83
2022-07-29T20:31:30.617Z,3.87
2022-07-29T20:34:33.535Z,4.20
2022-07-29T20:37:52.499Z,4.45
2022-07-29T20:40:58.962Z,4.20
2022-07-29T20:44:02.410Z,4.15
2022-07-29T20:47:05.327Z,4.62
2022-07-29T20:50:09.933Z,4.18
2022-07-29T20:53:13.047Z,4.18
2022-07-29T20:56:15.595Z,3.83
2022-07-29T20:59:18.451Z,4.15
2022-07-29T21:02:21.029Z,4.15
2022-07-29T21:05:23.864Z,4.05
2022-07-29T21:08:26.827Z,4.03
2022-07-29T21:11:43.419Z,4.00
2022-07-29T21:14:48.104Z,3.70
2022-07-29T21:17:52.713Z,4.20
2022-07-29T21:20:55.548Z,4.30
2022-07-29T21:23:58.381Z,4.50
2022-07-29T21:27:21.162Z,3.83
2022-07-29T21:30:24.675Z,3.80
2022-07-29T21:33:28.537Z,4.15
2022-07-29T21:36:48.475Z,3.95
2022-07-29T21:39:51.650Z,4.47
2022-07-29T21:42:54.476Z,4.18
2022-07-29T21:45:58.512Z,4.12
2022-07-29T21:49:01.447Z,4.35
2022-07-29T21:52:05.183Z,4.12
2022-07-29T21:55:08.358Z,4.20
2022-07-29T21:58:15.524Z,4.20
2022-07-29T22:01:18.359Z,4.20
2022-07-29T22:04:21.729Z,4.57
2022-07-29T22:07:24.662Z,4.22
2022-07-29T22:10:47.434Z,4.25
2022-07-29T22:13:50.082Z,4.20
2022-07-29T22:16:52.919Z,4.05
2022-07-29T22:20:00.804Z,4.00
2022-07-29T22:23:03.609Z,4.60
2022-07-29T22:26:06.497Z,4.30
2022-07-29T22:29:17.611Z,4.20
2022-07-29T22:32:20.142Z,4.70
2022-07-29T22:35:22.885Z,4.62
2022-07-29T22:38:25.431Z,4.57
2022-07-29T22:41:28.193Z,3.95
2022-07-29T22:44:30.903Z,4.25
2022-07-29T22:47:45.869Z,4.30
2022-07-29T22:50:51.582Z,4.62
2022-07-29T22:53:54.514Z,4.90
2022-07-29T22:56:57.352Z,4.90
2022-07-29T23:00:03.177Z,4.78
2022-07-29T23:03:06.094Z,5.00
2022-07-29T23:06:09.038Z,4.68
2022-07-29T23:09:11.534Z,4.82
2022-07-29T23:12:14.353Z,4.72
2022-07-29T23:15:16.898Z,4.90
2022-07-29T23:18:21.040Z,4.95
2022-07-29T23:21:23.697Z,4.40
2022-07-29T23:24:26.532Z,4.78
2022-07-29T23:27:29.231Z,4.70
2022-07-29T23:30:32.269Z,4.60
2022-07-29T23:33:34.752Z,4.45
2022-07-29T23:36:37.525Z,4.60
2022-07-29T23:39:40.052Z,4.70
2022-07-29T23:42:43.330Z,4.78
2022-07-29T23:45:48.657Z,4.80
2022-07-29T23:48:51.874Z,4.90
2022-07-29T23:51:54.437Z,4.53
2022-07-29T23:55:36.331Z,4.60
2022-07-29T23:58:19.688Z,4.62
